Huvudsida
METAR-TAF:

METAR-TAF

Flygplatser :

Forūdgāh-e Beyn ol Melalī-ye Tabrīz

Tabriz, Iran

latitud: 38-05N, longitud: 046-17E, höjd: 1367 m

Aktuellt väderrapport

Denna rapport gjordes för 29 minuter sedan, klockan 22:30 UTC
Stilla vind
Temperatur 8°C
Fuktighet 76%
Tryck 1023 hPa
Sikt 10 km eller mer
Få moln på en höjd av 3500 ft
Spridda moln på en höjd av 8000 ft

METAR: OITT 162230Z 00000KT 9999 FEW035 SCT080 08/04 Q1022 A3020

Tid: 02:29 (22:59 UTC)

Väderprognos

Denna rapport gjordes för 5 timmar och 29 minuter sedan, klockan 17:30 UTC
Prognos gäller från 16 kl. 18 UTC till 17 kl. 24 UTC
Vind 8 kt från nordost
Sikt: 7000 m
Få moln på en höjd av 4000 ft
Spridda moln på en höjd av 10000 ft

TAF: OITT 161730Z 1618/1724 04004MPS 7000 FEW040 SCT100

Aktuella väderrapporter och prognoser från 4000 flygplatser (METAR- och TAF-rapporter).

De tillgängliga stationerna syns som gula och röda prickar på kartan.

För musen över prickarna för att se namnen på stationerna.

Klicka sedan för att få väderrapporter och prognoser.

För att ändra kartan: Klicka på de gröna knapparna med ett svart kors på för att zooma in; den gröna knappen med ett streck på för att zooma ut; eller på de gröna pilarna för angränsande kartor.


METAR-TAF: